オウル の空港の天気 - METARとTAF

オウル空港 ( EFOU / OUL ) - フィンランド Oulunsalo
飛行場実況気象(Metar)
観測時間10/19 21:20 EEST (10/19 18:20 UTC)
風向・風速南西 1m/s
視程10km以上
天気現象
なし
気温4℃
湿度93%
気圧1014hPa
METAREFOU 191820Z AUTO 23002KT CAVOK 04/03 Q1014
過去の天気等 Google飛行場航空写真 Wunderground天気予報

過去48時間のMETAR

飛行場予報(TAF)
発表時間: 10/19 20:36 EEST (10/19 17:36 UTC)
予報対象時間: 19日21時 EEST ~ 20日21時 EEST
風向・風速西北西 2m/s
視程10km以上
天気現象散在した霧
なし
20日1時 EEST から 確率 40% で
視程800m
天気現象
全天を覆う雲 鉛直視程 60m
20日8時 EEST ~ 20日10時 EEST に徐々に
視程4000m
天気現象もや
全天の8割程度の雲 雲底高度 30m
20日8時 EEST ~ 20日12時 EEST に一時的に
視程800m
天気現象
全天を覆う雲 鉛直視程 30m
20日13時 EEST ~ 20日15時 EEST に徐々に
視程10km以上
天気現象運行に影響にある天気現象が終了
全天の4割程度の雲 雲底高度 120m
20日15時 EEST ~ 20日21時 EEST に一時的に
全天の8割程度の雲 雲底高度 150m
TAF EFOU 191736Z 1918/2018 30003KT 9999 BCFG NSC
PROB40 1922/2005 0800 FG VV002
BECMG 2005/2007 4000 BR BKN001
TEMPO 2005/2009 0800 FG VV001
BECMG 2010/2012 9999 NSW SCT004
TEMPO 2012/2018 BKN005